DFOO/BOY METAR and TAF weather

Enter ICAO airport designator
Station Type Date Time Source
DFOO METAR 2019/10/20 19:00 UTC NOAA

DFOO 201900Z 36003KT CAVOK 25/23 Q1011


Station Type Date Time Source
DFOO Decoded METAR 2019/10/20 19:00 UTC NOAA

Bobo-Dioulasso, Burkina Faso (DFOO) 11-10N 004-19W 460M
Oct 20, 2019 - 03:00 PM EDT / 2019.10.20 1900 UTC
Wind: from the N (360 degrees) at 3 MPH (3 KT):0
Visibility: greater than 7 mile(s):0
Temperature: 77 F (25 C)
Dew Point: 73 F (23 C)
Relative Humidity: 88%
Pressure (altimeter): 29.85 in. Hg (1011 hPa)
ob: DFOO 201900Z 36003KT CAVOK 25/23 Q1011
cycle: 19

Station Type Date Time Source
DFOO TAF 2019/10/20 18:06 UTC NOAA

TAF DFOO 201700Z 2018/2118 VRB08KT 9999 FEW016 PROB30
TEMPO 2020/2106 4000 TSRA SCT016 FEW033CB

Example: see airport list